Time;durP1;ratioP1;P1;durP2;ratioP2;P2;SDS_P1;SDS_P2;PMS_P1;PMS_P2;Temp;Humidity;BMP_temperature;BMP_pressure;BME280_temperature;BME280_humidity;BME280_pressure;Samples;Min_cycle;Max_cycle;Signal;HPM_P1;HPM_P2
2023/08/02 00:00:57;;;;;;;13.05;3.83;;;15.20;99.90;;;;;;5053308;28;20048;-79
2023/08/02 00:03:23;;;;;;;12.57;3.63;;;15.20;99.90;;;;;;5053293;28;20049;-81
2023/08/02 00:05:57;;;;;;;18.10;4.22;;;15.10;99.90;;;;;;5052903;28;20130;-80
2023/08/02 00:08:23;;;;;;;15.52;3.90;;;15.10;99.90;;;;;;5054096;28;20436;-78
2023/08/02 00:10:49;;;;;;;16.20;3.85;;;15.10;99.90;;;;;;5053273;28;20128;-78
2023/08/02 00:13:15;;;;;;;13.73;3.95;;;15.10;99.90;;;;;;5052790;28;20445;-79
2023/08/02 00:15:41;;;;;;;12.25;4.15;;;15.10;99.90;;;;;;5052473;28;20447;-78
2023/08/02 00:18:07;;;;;;;11.98;4.00;;;15.10;99.90;;;;;;5057340;28;20045;-80
2023/08/02 00:20:33;;;;;;;16.98;4.18;;;15.10;99.90;;;;;;5057463;28;20102;-76
2023/08/02 00:22:59;;;;;;;19.60;4.18;;;15.10;99.90;;;;;;5056092;28;20040;-80
2023/08/02 00:25:25;;;;;;;13.45;4.07;;;15.10;99.90;;;;;;5057607;28;20432;-82
2023/08/02 00:27:50;;;;;;;15.35;4.40;;;15.10;99.90;;;;;;5039346;28;20044;-78
2023/08/02 00:30:16;;;;;;;12.35;4.05;;;15.10;99.90;;;;;;5057033;28;20072;-79
2023/08/02 00:32:46;;;;;;;15.00;4.00;;;15.10;99.90;;;;;;5056344;28;20063;-78
2023/08/02 00:35:12;;;;;;;12.88;4.10;;;15.10;99.90;;;;;;5057061;28;20060;-75
2023/08/02 00:37:38;;;;;;;15.88;4.47;;;15.10;99.90;;;;;;5039115;28;20052;-78
2023/08/02 00:40:04;;;;;;;13.57;4.22;;;15.10;99.90;;;;;;5039236;28;20041;-79
2023/08/02 00:42:30;;;;;;;14.50;4.07;;;15.10;99.90;;;;;;5056784;28;20045;-76
2023/08/02 00:44:56;;;;;;;14.40;4.32;;;15.10;99.90;;;;;;5056716;28;20053;-79
2023/08/02 00:47:24;;;;;;;14.73;4.22;;;15.10;99.90;;;;;;5056135;28;20077;-79
2023/08/02 00:49:49;;;;;;;17.65;4.60;;;15.10;99.90;;;;;;5055574;28;20053;-78
2023/08/02 00:52:15;;;;;;;14.07;4.13;;;15.10;99.90;;;;;;5056049;28;20444;-79
2023/08/02 00:54:41;;;;;;;17.90;4.20;;;15.20;99.90;;;;;;5055648;28;20053;-76
2023/08/02 00:57:09;;;;;;;17.98;4.18;;;15.10;99.90;;;;;;5056679;28;20045;-78
2023/08/02 00:59:40;;;;;;;20.25;5.10;;;15.20;99.90;;;;;;5056689;28;20060;-78
2023/08/02 01:02:06;;;;;;;17.88;4.47;;;15.10;99.90;;;;;;5056287;28;20150;-79
2023/08/02 01:04:36;;;;;;;18.08;4.50;;;15.20;99.90;;;;;;5056290;28;20049;-76
2023/08/02 01:07:17;;;;;;;14.70;4.35;;;15.20;99.90;;;;;;5038964;28;20045;-79
2023/08/02 01:09:59;;;;;;;21.35;4.80;;;15.10;99.90;;;;;;5056733;28;20087;-78
2023/08/02 01:12:25;;;;;;;15.75;4.07;;;15.20;99.90;;;;;;5057008;28;20041;-80
2023/08/02 01:14:55;;;;;;;23.83;5.53;;;15.20;99.90;;;;;;5057082;28;20049;-76
2023/08/02 01:17:24;;;;;;;13.90;4.20;;;15.20;99.90;;;;;;5060100;28;20041;-78
2023/08/02 01:19:49;;;;;;;16.58;4.53;;;15.20;99.90;;;;;;5059944;28;20048;-77
2023/08/02 01:22:15;;;;;;;26.80;4.50;;;15.20;99.90;;;;;;5055523;28;20501;-77
2023/08/02 01:24:41;;;;;;;19.15;4.00;;;15.20;99.90;;;;;;5055696;28;20151;-78
2023/08/02 01:27:18;;;;;;;26.20;4.53;;;15.20;99.90;;;;;;5054941;28;20099;-79
2023/08/02 01:29:47;;;;;;;;;;;15.20;99.90;;;;;;5056165;28;20056;-78
2023/08/02 01:32:15;;;;;;;19.30;4.68;;;15.20;99.90;;;;;;5055836;28;19921;-79
2023/08/02 01:34:41;;;;;;;17.40;4.63;;;15.20;99.90;;;;;;5056551;28;20156;-79
2023/08/02 01:37:07;;;;;;;21.85;4.65;;;15.20;99.90;;;;;;5055567;28;20492;-77
2023/08/02 01:39:33;;;;;;;27.08;4.70;;;15.20;99.90;;;;;;5054718;28;20080;-76
2023/08/02 01:41:58;;;;;;;21.20;4.93;;;15.20;99.90;;;;;;5056235;28;20041;-78
2023/08/02 01:44:24;;;;;;;14.77;4.47;;;15.20;99.90;;;;;;5056282;28;20037;-78
2023/08/02 01:46:50;;;;;;;24.45;4.63;;;15.20;99.90;;;;;;5056804;28;20054;-77
2023/08/02 01:49:15;;;;;;;18.92;4.43;;;15.20;99.90;;;;;;5055574;28;20049;-78
2023/08/02 01:51:41;;;;;;;19.95;5.22;;;15.20;99.90;;;;;;5053991;28;20485;-79
2023/08/02 01:54:07;;;;;;;20.95;4.93;;;15.20;99.90;;;;;;5054453;28;20048;-78
2023/08/02 01:56:33;;;;;;;29.00;5.00;;;15.20;99.90;;;;;;5055143;28;20049;-78
2023/08/02 01:58:58;;;;;;;22.20;5.93;;;15.10;99.90;;;;;;5056290;28;20036;-78
2023/08/02 02:01:24;;;;;;;21.83;4.65;;;15.10;99.90;;;;;;5056234;28;20056;-79
2023/08/02 02:03:50;;;;;;;24.02;5.43;;;15.10;99.90;;;;;;5056790;28;20544;-78
2023/08/02 02:06:15;;;;;;;24.65;5.03;;;15.10;99.90;;;;;;5055115;28;20048;-77
2023/08/02 02:08:41;;;;;;;27.42;5.75;;;15.10;99.90;;;;;;5054392;28;20041;-79
2023/08/02 02:11:07;;;;;;;18.80;4.50;;;15.10;99.90;;;;;;5054952;28;20041;-79
2023/08/02 02:13:33;;;;;;;22.80;5.15;;;15.10;99.90;;;;;;5055031;28;20045;-79
2023/08/02 02:15:59;;;;;;;21.10;4.60;;;15.10;99.90;;;;;;5054952;28;20056;-78
2023/08/02 02:18:24;;;;;;;20.90;4.60;;;15.10;99.90;;;;;;5054788;28;20128;-81
2023/08/02 02:20:50;;;;;;;20.08;4.50;;;15.10;99.90;;;;;;5054805;28;20040;-79
2023/08/02 02:23:16;;;;;;;22.55;5.55;;;15.10;99.90;;;;;;5054800;28;20135;-79
2023/08/02 02:25:42;;;;;;;23.27;5.60;;;15.10;99.90;;;;;;5053841;28;20059;-79
2023/08/02 02:28:08;;;;;;;21.50;5.18;;;15.10;99.90;;;;;;5037086;28;20111;-78
2023/08/02 02:30:34;;;;;;;22.02;5.32;;;15.10;99.90;;;;;;5054412;28;20092;-79
2023/08/02 02:33:00;;;;;;;22.70;4.90;;;15.00;99.90;;;;;;5053591;28;20119;-78
2023/08/02 02:35:26;;;;;;;19.80;4.78;;;15.00;99.90;;;;;;5054306;28;20096;-80
2023/08/02 02:37:52;;;;;;;21.23;4.30;;;14.90;99.90;;;;;;5053815;28;20098;-77
2023/08/02 02:40:18;;;;;;;18.27;4.90;;;15.00;99.90;;;;;;5037369;28;20057;-80
2023/08/02 02:42:44;;;;;;;22.98;5.28;;;14.90;99.90;;;;;;5055156;28;20041;-80
2023/08/02 02:45:10;;;;;;;23.20;5.25;;;14.90;99.90;;;;;;5054021;28;20049;-77
2023/08/02 02:47:36;;;;;;;23.87;5.10;;;14.90;99.90;;;;;;5053297;28;20048;-79
2023/08/02 02:50:02;;;;;;;12.10;4.35;;;14.80;99.90;;;;;;5054726;28;20052;-79
2023/08/02 02:52:28;;;;;;;19.60;5.05;;;14.90;99.90;;;;;;5055543;28;20049;-79
2023/08/02 02:54:54;;;;;;;20.17;4.80;;;14.80;99.90;;;;;;5054449;28;20048;-81
2023/08/02 02:57:19;;;;;;;19.10;5.10;;;14.80;99.90;;;;;;5038298;28;20040;-78
2023/08/02 02:59:45;;;;;;;19.85;4.82;;;14.80;99.90;;;;;;5056505;28;20041;-81
2023/08/02 03:02:11;;;;;;;22.63;5.95;;;14.70;99.90;;;;;;5055371;28;20049;-80
2023/08/02 03:04:36;;;;;;;20.13;6.15;;;14.70;99.90;;;;;;5055543;28;20405;-79
2023/08/02 03:07:02;;;;;;;15.73;5.28;;;14.70;99.90;;;;;;5054010;28;20094;-80
2023/08/02 03:09:28;;;;;;;20.45;5.60;;;14.60;99.90;;;;;;5060192;28;20523;-80
2023/08/02 03:11:54;;;;;;;23.25;5.80;;;14.60;99.90;;;;;;5059990;28;20131;-80
2023/08/02 03:14:19;;;;;;;18.65;5.97;;;14.50;99.90;;;;;;5058431;28;20048;-80
2023/08/02 03:16:45;;;;;;;17.88;5.35;;;14.50;99.90;;;;;;5055930;28;20077;-80
2023/08/02 03:19:11;;;;;;;19.80;5.75;;;14.40;99.90;;;;;;5057052;28;20040;-80
2023/08/02 03:21:38;;;;;;;19.48;5.65;;;14.40;99.90;;;;;;5055104;28;20265;-78
2023/08/02 03:24:05;;;;;;;23.30;5.85;;;14.30;99.90;;;;;;5056138;28;20084;-81
2023/08/02 03:26:30;;;;;;;21.30;5.47;;;14.30;99.90;;;;;;5055853;28;20085;-78
2023/08/02 03:28:59;;;;;;;17.88;6.13;;;14.30;99.90;;;;;;5054136;28;20557;-80
2023/08/02 03:31:25;;;;;;;20.80;6.03;;;14.30;99.90;;;;;;5055561;28;20061;-82
2023/08/02 03:33:51;;;;;;;22.65;6.10;;;14.20;99.90;;;;;;5054223;28;20478;-79
2023/08/02 03:36:16;;;;;;;18.08;5.43;;;14.20;99.90;;;;;;5055793;28;20076;-81
2023/08/02 03:38:42;;;;;;;19.85;5.75;;;14.20;99.90;;;;;;5074486;28;20048;-78
2023/08/02 03:41:08;;;;;;;20.45;6.25;;;14.20;99.90;;;;;;5056427;28;20052;-81
2023/08/02 03:43:34;;;;;;;20.60;6.13;;;14.10;99.90;;;;;;5056147;28;20122;-78
2023/08/02 03:46:00;;;;;;;22.45;5.97;;;14.10;99.90;;;;;;5056159;28;20063;-80
2023/08/02 03:48:28;;;;;;;13.65;5.97;;;14.10;99.90;;;;;;5056134;28;20102;-79
2023/08/02 03:50:56;;;;;;;21.88;5.43;;;14.10;99.90;;;;;;5052341;28;20045;-80
2023/08/02 03:53:21;;;;;;;24.38;6.45;;;14.10;99.90;;;;;;5054869;28;20444;-81
2023/08/02 03:55:47;;;;;;;19.80;6.18;;;14.10;99.90;;;;;;5055998;28;20131;-80
2023/08/02 03:58:13;;;;;;;22.63;5.70;;;14.10;99.90;;;;;;5037759;28;20162;-80
2023/08/02 04:00:38;;;;;;;19.27;6.13;;;14.10;99.90;;;;;;5053289;28;20076;-80
2023/08/02 04:03:04;;;;;;;23.33;6.35;;;14.10;99.90;;;;;;5059125;28;20100;-80
2023/08/02 04:05:30;;;;;;;21.92;6.00;;;14.10;99.90;;;;;;5055835;28;20041;-79
2023/08/02 04:07:56;;;;;;;17.02;5.65;;;14.00;99.90;;;;;;5055472;28;20041;-80
2023/08/02 04:10:21;;;;;;;19.38;6.35;;;14.00;99.90;;;;;;5055860;28;20108;-82
2023/08/02 04:12:51;;;;;;;21.17;6.80;;;14.00;99.90;;;;;;5057458;28;20041;-80
2023/08/02 04:15:17;;;;;;;19.25;6.18;;;14.00;99.90;;;;;;5057564;28;20049;-80
2023/08/02 04:17:42;;;;;;;22.05;5.82;;;14.00;99.90;;;;;;5054531;28;20500;-80
2023/08/02 04:20:09;;;;;;;15.82;5.82;;;14.10;99.90;;;;;;5037872;28;20056;-78
2023/08/02 04:22:35;;;;;;;19.42;6.15;;;14.10;99.90;;;;;;5056287;28;20084;-80
2023/08/02 04:25:01;;;;;;;23.20;6.57;;;14.10;99.90;;;;;;5037913;28;20059;-79
2023/08/02 04:27:28;;;;;;;18.80;6.35;;;14.10;99.90;;;;;;5054727;28;20127;-79
2023/08/02 04:29:54;;;;;;;18.55;5.80;;;14.10;99.90;;;;;;5053973;28;20084;-81
2023/08/02 04:32:19;;;;;;;20.10;6.97;;;14.10;99.90;;;;;;5053641;28;20507;-81
2023/08/02 04:34:45;;;;;;;26.05;6.47;;;14.10;99.90;;;;;;5054786;28;20080;-78
2023/08/02 04:37:13;;;;;;;23.75;6.25;;;14.10;99.90;;;;;;5054493;28;20055;-81
2023/08/02 04:39:39;;;;;;;21.88;6.03;;;14.10;99.90;;;;;;5054519;28;20075;-81
2023/08/02 04:42:05;;;;;;;20.38;5.80;;;14.20;99.90;;;;;;5052180;28;20473;-79
2023/08/02 04:44:31;;;;;;;18.38;5.72;;;14.30;99.90;;;;;;5053025;28;20053;-78
2023/08/02 04:46:57;;;;;;;18.48;6.20;;;14.30;99.90;;;;;;5053343;28;20043;-80
2023/08/02 04:49:22;;;;;;;17.55;5.47;;;14.30;99.90;;;;;;5052027;28;20131;-78
2023/08/02 04:51:48;;;;;;;17.23;5.80;;;14.40;99.90;;;;;;5053483;28;20052;-79
2023/08/02 04:54:14;;;;;;;17.13;5.93;;;14.40;99.90;;;;;;5053140;28;20389;-79
2023/08/02 04:56:40;;;;;;;19.58;5.93;;;14.30;99.90;;;;;;5053563;28;20049;-76
2023/08/02 04:59:05;;;;;;;14.43;5.05;;;14.40;99.90;;;;;;5052032;28;20063;-80
2023/08/02 05:01:32;;;;;;;14.63;5.50;;;14.40;99.90;;;;;;5052028;28;20056;-80
2023/08/02 05:03:57;;;;;;;15.70;5.37;;;14.50;99.90;;;;;;5054284;28;20041;-81
2023/08/02 05:06:23;;;;;;;17.80;5.72;;;14.50;99.90;;;;;;5057288;28;20639;-80
2023/08/02 05:08:49;;;;;;;16.13;5.53;;;14.50;99.90;;;;;;5055412;28;20555;-76
2023/08/02 05:11:15;;;;;;;18.15;5.68;;;14.50;99.90;;;;;;5024038;28;20109;-80
2023/08/02 05:13:41;;;;;;;17.50;5.45;;;14.50;99.90;;;;;;5057577;28;20076;-79
2023/08/02 05:16:14;;;;;;;15.82;5.85;;;14.60;99.90;;;;;;5056381;28;20044;-81
2023/08/02 05:18:40;;;;;;;19.45;6.28;;;14.60;99.90;;;;;;5058499;28;20045;-79
2023/08/02 05:21:17;;;;;;;15.02;5.60;;;14.60;99.90;;;;;;5040171;28;20072;-80
2023/08/02 05:23:43;;;;;;;20.30;5.75;;;14.60;99.90;;;;;;5058417;28;20056;-81
2023/08/02 05:26:09;;;;;;;18.67;5.65;;;14.60;99.90;;;;;;5057411;28;20045;-81
2023/08/02 05:28:36;;;;;;;18.43;5.77;;;14.70;99.90;;;;;;5055564;28;20045;-82
2023/08/02 05:31:02;;;;;;;17.02;6.03;;;14.70;99.90;;;;;;5057017;28;20299;-82
2023/08/02 05:33:28;;;;;;;16.25;5.70;;;14.70;99.90;;;;;;5057143;28;20060;-78
2023/08/02 05:35:53;;;;;;;21.48;5.88;;;14.80;99.90;;;;;;5058723;28;20041;-79
2023/08/02 05:38:20;;;;;;;14.23;5.38;;;15.00;99.90;;;;;;5057985;28;20045;-78
2023/08/02 05:40:46;;;;;;;16.48;4.93;;;15.10;99.90;;;;;;5056791;28;20051;-80
2023/08/02 05:43:12;;;;;;;14.75;5.40;;;15.20;99.90;;;;;;5057454;28;20127;-82
2023/08/02 05:45:37;;;;;;;16.30;4.95;;;15.30;99.90;;;;;;5055805;28;20060;-82
2023/08/02 05:48:03;;;;;;;13.10;4.10;;;15.40;99.90;;;;;;5057844;28;20041;-80
2023/08/02 05:50:29;;;;;;;13.70;4.43;;;15.40;99.90;;;;;;5057567;28;20358;-78
2023/08/02 05:52:55;;;;;;;19.60;5.28;;;15.40;99.90;;;;;;5056869;28;20045;-79
2023/08/02 05:55:21;;;;;;;16.60;4.25;;;15.50;99.90;;;;;;5056596;28;20057;-79
2023/08/02 05:57:49;;;;;;;12.35;4.45;;;15.60;99.90;;;;;;5054444;28;20048;-80
2023/08/02 06:00:16;;;;;;;18.98;5.00;;;15.60;99.90;;;;;;5057438;28;20468;-81
2023/08/02 06:02:42;;;;;;;19.90;5.25;;;15.60;99.90;;;;;;5055604;28;20049;-79
2023/08/02 06:05:08;;;;;;;15.02;4.50;;;15.70;99.90;;;;;;5057164;28;20487;-78
2023/08/02 06:07:34;;;;;;;18.47;4.70;;;15.70;99.90;;;;;;5055196;28;20051;-77
2023/08/02 06:10:00;;;;;;;11.60;3.80;;;15.80;99.90;;;;;;5055800;28;20128;-77
2023/08/02 06:12:26;;;;;;;17.08;4.70;;;15.90;99.90;;;;;;5054780;28;20389;-83
2023/08/02 06:14:51;;;;;;;10.90;4.40;;;15.90;99.90;;;;;;5055930;28;20378;-80
2023/08/02 06:17:17;;;;;;;18.27;5.07;;;16.00;99.90;;;;;;5055818;28;20469;-80
2023/08/02 06:19:43;;;;;;;12.02;4.35;;;16.10;99.90;;;;;;5056737;28;20053;-77
2023/08/02 06:22:09;;;;;;;17.33;4.85;;;16.10;99.90;;;;;;5057080;28;20056;-79
2023/08/02 06:24:35;;;;;;;13.93;4.18;;;16.10;99.90;;;;;;5058140;28;20052;-78
2023/08/02 06:27:01;;;;;;;15.65;4.65;;;16.10;99.90;;;;;;5056371;28;20538;-78
2023/08/02 06:29:26;;;;;;;15.30;4.30;;;16.20;99.90;;;;;;5056900;28;20106;-75
2023/08/02 06:31:52;;;;;;;14.45;4.03;;;16.20;99.90;;;;;;5038857;28;20089;-77
2023/08/02 06:34:18;;;;;;;12.30;3.85;;;16.20;99.90;;;;;;5037350;28;20091;-82
2023/08/02 06:36:44;;;;;;;12.48;4.63;;;16.20;99.90;;;;;;5054678;28;20041;-82
2023/08/02 06:39:10;;;;;;;10.98;4.13;;;16.10;99.90;;;;;;5056416;28;20048;-79
2023/08/02 06:41:35;;;;;;;9.82;3.92;;;16.10;99.90;;;;;;5058111;28;20053;-77
2023/08/02 06:44:01;;;;;;;9.68;4.00;;;16.10;99.90;;;;;;5058038;28;20512;-79
2023/08/02 06:46:28;;;;;;;13.88;3.35;;;16.10;99.90;;;;;;5059751;28;20128;-79
2023/08/02 06:48:53;;;;;;;12.05;4.10;;;16.10;99.90;;;;;;5057470;28;20049;-84
2023/08/02 06:51:19;;;;;;;13.35;3.97;;;16.10;99.90;;;;;;5055994;28;20148;-84
2023/08/02 06:53:45;;;;;;;14.82;4.10;;;16.10;99.90;;;;;;5038933;28;20052;-80
2023/08/02 06:56:15;;;;;;;12.43;3.90;;;16.00;99.90;;;;;;5056704;28;20405;-81
2023/08/02 06:58:42;;;;;;;15.45;3.97;;;16.10;99.90;;;;;;5054102;28;20045;-78
2023/08/02 07:01:12;;;;;;;11.60;4.13;;;16.00;99.90;;;;;;5055229;28;20080;-79
2023/08/02 07:03:38;;;;;;;12.20;4.10;;;16.10;99.90;;;;;;5054773;28;20392;-79
2023/08/02 07:06:15;;;;;;;11.82;3.13;;;16.10;99.90;;;;;;5057174;28;20048;-84
2023/08/02 07:08:41;;;;;;;10.98;3.53;;;16.10;99.90;;;;;;5056492;28;20508;-81
2023/08/02 07:11:08;;;;;;;13.35;3.63;;;16.00;99.90;;;;;;5055801;28;20062;-79
2023/08/02 07:13:36;;;;;;;12.52;3.55;;;16.00;99.90;;;;;;5056513;28;20044;-80
2023/08/02 07:16:04;;;;;;;11.40;3.10;;;16.00;99.90;;;;;;5056037;28;20128;-77
2023/08/02 07:18:31;;;;;;;12.65;3.83;;;15.90;99.90;;;;;;5056139;28;20037;-78
2023/08/02 07:21:02;;;;;;;11.57;3.33;;;15.90;99.90;;;;;;5054600;28;20453;-77
2023/08/02 07:23:28;;;;;;;15.13;3.88;;;15.90;99.90;;;;;;5053913;28;20084;-76
2023/08/02 07:25:55;;;;;;;14.00;3.60;;;15.90;99.90;;;;;;5053314;28;20110;-77
2023/08/02 07:28:21;;;;;;;16.75;4.05;;;15.90;99.90;;;;;;5053318;28;20428;-79
2023/08/02 07:30:47;;;;;;;16.48;3.85;;;15.80;99.90;;;;;;5055600;28;20053;-78
2023/08/02 07:33:13;;;;;;;11.75;3.85;;;15.80;99.90;;;;;;5057388;28;20107;-79
2023/08/02 07:35:38;;;;;;;13.55;4.45;;;15.80;99.90;;;;;;5057760;28;20045;-79
2023/08/02 07:38:04;;;;;;;11.30;4.18;;;15.80;99.90;;;;;;5056194;28;20140;-77
2023/08/02 07:40:30;;;;;;;13.82;3.45;;;15.80;99.90;;;;;;5054373;28;20078;-78
2023/08/02 07:42:56;;;;;;;17.08;4.05;;;15.70;99.90;;;;;;5054335;28;20045;-80
2023/08/02 07:45:21;;;;;;;16.38;4.05;;;15.70;99.90;;;;;;5053859;28;20056;-81
2023/08/02 07:47:47;;;;;;;14.85;3.80;;;15.70;99.90;;;;;;5054951;28;20117;-78
2023/08/02 07:50:13;;;;;;;18.92;3.70;;;15.70;99.90;;;;;;5055532;28;20068;-81
2023/08/02 07:52:39;;;;;;;14.43;3.85;;;15.60;99.90;;;;;;5053429;28;20051;-79
2023/08/02 07:55:05;;;;;;;12.57;3.47;;;15.60;99.90;;;;;;5053399;28;20045;-78
2023/08/02 07:57:32;;;;;;;12.25;3.45;;;15.60;99.90;;;;;;5054229;28;20048;-80
2023/08/02 07:59:58;;;;;;;17.63;3.92;;;15.60;99.90;;;;;;5053267;28;20501;-82
2023/08/02 08:02:26;;;;;;;10.77;3.63;;;15.50;99.90;;;;;;5055748;28;20095;-82
2023/08/02 08:04:53;;;;;;;16.00;3.33;;;15.60;99.90;;;;;;5054211;28;20048;-77
2023/08/02 08:07:19;;;;;;;;;;;15.60;99.90;;;;;;5054525;28;20440;-80
2023/08/02 08:09:45;;;;;;;14.87;3.37;;;15.60;99.90;;;;;;5053496;28;19921;-78
2023/08/02 08:12:11;;;;;;;10.85;2.90;;;15.70;99.90;;;;;;5054247;28;20045;-76
2023/08/02 08:14:37;;;;;;;13.43;4.05;;;15.70;99.90;;;;;;5053251;28;20536;-80
2023/08/02 08:17:03;;;;;;;10.82;3.42;;;15.80;99.90;;;;;;5052577;28;20114;-80
2023/08/02 08:19:33;;;;;;;15.60;3.78;;;15.80;99.90;;;;;;5052372;28;20045;-77
2023/08/02 08:21:58;;;;;;;12.05;3.78;;;15.80;99.90;;;;;;5052570;28;20041;-81
2023/08/02 08:24:24;;;;;;;14.82;3.97;;;15.80;99.90;;;;;;5052448;28;20505;-81
2023/08/02 08:26:50;;;;;;;12.10;3.63;;;15.90;99.90;;;;;;5053793;28;20206;-80
2023/08/02 08:29:17;;;;;;;9.40;3.42;;;16.00;99.90;;;;;;5053733;28;20052;-79
2023/08/02 08:31:43;;;;;;;11.23;3.60;;;16.10;99.90;;;;;;5053138;28;20397;-80
2023/08/02 08:34:08;;;;;;;14.68;3.92;;;16.30;99.90;;;;;;5052022;28;20493;-82
2023/08/02 08:36:34;;;;;;;13.07;3.85;;;16.40;99.90;;;;;;5054297;28;20059;-82
2023/08/02 08:39:00;;;;;;;13.52;4.05;;;16.60;99.90;;;;;;5056752;28;20081;-81
2023/08/02 08:41:26;;;;;;;10.20;3.40;;;16.60;99.90;;;;;;5057307;28;20048;-79
2023/08/02 08:43:51;;;;;;;13.68;3.70;;;16.60;99.90;;;;;;5057078;28;20053;-82
2023/08/02 08:46:18;;;;;;;9.00;3.22;;;16.60;99.90;;;;;;5056817;28;20088;-82
2023/08/02 08:48:44;;;;;;;13.90;3.70;;;16.50;99.90;;;;;;5056890;28;20048;-81
2023/08/02 08:51:12;;;;;;;9.47;3.93;;;16.50;99.90;;;;;;5055524;28;20080;-81
2023/08/02 08:53:43;;;;;;;15.70;4.82;;;16.40;99.90;;;;;;5056916;28;20107;-81
2023/08/02 08:56:10;;;;;;;14.10;4.90;;;16.40;99.90;;;;;;5055514;28;20115;-79
2023/08/02 08:58:36;;;;;;;;;;;16.30;99.90;;;;;;5056555;28;20428;-80
2023/08/02 09:01:06;;;;;;;13.95;3.50;;;16.30;99.90;;;;;;5057346;28;19920;-81
2023/08/02 09:03:35;;;;;;;13.38;4.55;;;16.30;99.90;;;;;;5061023;28;20048;-79
2023/08/02 09:06:03;;;;;;;14.23;5.28;;;16.30;99.90;;;;;;5058042;28;20048;-76
2023/08/02 09:08:29;;;;;;;15.65;4.38;;;16.30;99.90;;;;;;5057603;28;20057;-77
2023/08/02 09:10:54;;;;;;;11.90;4.53;;;16.30;99.90;;;;;;5024668;28;20132;-76
2023/08/02 09:13:25;;;;;;;14.25;4.53;;;16.40;99.90;;;;;;5055773;28;20148;-78
2023/08/02 09:16:13;;;;;;;13.35;4.80;;;16.50;99.90;;;;;;5056798;28;20041;-80
2023/08/02 09:18:45;;;;;;;13.93;4.50;;;16.60;99.90;;;;;;5057102;28;20049;-77
2023/08/02 09:21:16;;;;;;;13.23;5.53;;;16.60;99.90;;;;;;5056216;28;20041;-76
2023/08/02 09:23:55;;;;;;;12.63;4.70;;;16.70;99.90;;;;;;5056141;28;20051;-76
2023/08/02 09:26:21;;;;;;;9.57;4.65;;;16.70;99.90;;;;;;5057139;28;20076;-76
2023/08/02 09:29:00;;;;;;;17.60;5.03;;;16.70;99.90;;;;;;5056106;28;20076;-76
2023/08/02 09:31:28;;;;;;;12.43;4.82;;;16.80;99.90;;;;;;5056712;28;20075;-78
2023/08/02 09:33:55;;;;;;;13.10;5.32;;;16.80;99.90;;;;;;5055791;28;20135;-73
2023/08/02 09:36:33;;;;;;;10.93;4.40;;;16.90;99.90;;;;;;5055471;28;20513;-75
2023/08/02 09:39:03;;;;;;;11.15;4.38;;;16.90;99.90;;;;;;5056234;28;20049;-78
2023/08/02 09:41:31;;;;;;;10.15;4.72;;;16.90;99.90;;;;;;5055522;28;20099;-76
2023/08/02 09:43:57;;;;;;;11.57;4.20;;;16.90;99.90;;;;;;5055588;28;20052;-74
2023/08/02 09:46:34;;;;;;;7.35;3.55;;;16.90;99.90;;;;;;5055659;28;20052;-73
2023/08/02 09:49:21;;;;;;;12.65;4.07;;;16.90;99.90;;;;;;5053599;28;20059;-73
2023/08/02 09:51:47;;;;;;;8.80;3.80;;;16.90;99.90;;;;;;5055276;28;20049;-73
2023/08/02 09:54:14;;;;;;;8.85;3.85;;;17.00;99.90;;;;;;5054729;28;20049;-72
2023/08/02 09:56:44;;;;;;;7.40;3.20;;;16.90;99.90;;;;;;5054510;28;20067;-76
2023/08/02 09:59:19;;;;;;;6.22;3.20;;;16.90;99.90;;;;;;5040663;28;20133;-76
2023/08/02 10:01:48;;;;;;;8.90;3.22;;;16.90;99.90;;;;;;5055590;28;20045;-80
2023/08/02 10:04:15;;;;;;;6.30;2.53;;;17.00;99.90;;;;;;5054029;28;20103;-74
2023/08/02 10:06:46;;;;;;;8.10;2.67;;;17.00;99.90;;;;;;5056014;28;20053;-74
2023/08/02 10:09:19;;;;;;;7.03;3.03;;;17.00;99.90;;;;;;5054583;28;20072;-78
2023/08/02 10:12:02;;;;;;;6.53;2.72;;;17.00;99.90;;;;;;5055541;28;20049;-75
2023/08/02 10:14:30;;;;;;;5.22;2.30;;;17.00;99.90;;;;;;5056163;28;20041;-79
2023/08/02 10:17:00;;;;;;;4.65;2.08;;;17.00;99.90;;;;;;5056430;28;20045;-77
2023/08/02 10:19:30;;;;;;;5.43;2.28;;;17.00;99.90;;;;;;5055555;28;20049;-80
2023/08/02 10:22:00;;;;;;;5.00;1.85;;;17.00;99.90;;;;;;5058143;28;20056;-80
2023/08/02 10:24:27;;;;;;;6.72;1.83;;;17.10;99.90;;;;;;5057553;28;20045;-81
2023/08/02 10:27:03;;;;;;;4.25;1.90;;;17.00;99.90;;;;;;5056544;28;20044;-79
2023/08/02 10:29:31;;;;;;;4.82;2.15;;;17.00;99.90;;;;;;5056292;28;20110;-79
2023/08/02 10:31:57;;;;;;;5.18;2.00;;;17.00;99.90;;;;;;5053834;28;20065;-78
2023/08/02 10:34:35;;;;;;;5.13;1.33;;;17.10;99.90;;;;;;5055284;28;20041;-78
2023/08/02 10:37:01;;;;;;;6.32;1.83;;;17.20;99.90;;;;;;5054913;28;20144;-75
2023/08/02 10:39:45;;;;;;;6.00;1.53;;;17.10;99.90;;;;;;5054932;28;20071;-79
2023/08/02 10:42:29;;;;;;;4.72;1.67;;;17.30;99.90;;;;;;5054560;28;20778;-78
2023/08/02 10:44:55;;;;;;;4.38;1.77;;;17.40;99.90;;;;;;5054200;28;20138;-78
2023/08/02 10:47:25;;;;;;;5.05;1.67;;;17.60;99.90;;;;;;5054469;28;20081;-78
2023/08/02 10:49:51;;;;;;;5.68;1.80;;;17.60;99.90;;;;;;5053351;28;20091;-80
2023/08/02 10:52:23;;;;;;;4.90;1.50;;;17.70;99.90;;;;;;5054819;28;20053;-79
2023/08/02 10:55:08;;;;;;;3.65;1.48;;;17.80;99.90;;;;;;5053486;28;20057;-78
2023/08/02 10:57:36;;;;;;;3.85;1.70;;;17.80;99.90;;;;;;5053471;28;20048;-79
2023/08/02 11:00:23;;;;;;;3.25;1.60;;;17.80;99.90;;;;;;5053628;28;20060;-81
2023/08/02 11:02:50;;;;;;;3.03;1.20;;;17.70;99.90;;;;;;5053504;28;20048;-79
2023/08/02 11:05:19;;;;;;;;;;;17.60;99.90;;;;;;5053487;28;20056;-78
2023/08/02 11:07:59;;;;;;;3.85;1.30;;;17.60;99.90;;;;;;5054511;28;19999;-80
2023/08/02 11:10:24;;;;;;;4.18;1.90;;;17.80;99.90;;;;;;5054684;28;20041;-78
2023/08/02 11:12:54;;;;;;;4.50;1.40;;;17.90;99.90;;;;;;5036276;28;20045;-79
2023/08/02 11:15:20;;;;;;;3.85;1.25;;;17.90;99.90;;;;;;5054528;28;20084;-78
2023/08/02 11:17:56;;;;;;;4.07;1.75;;;18.20;99.90;;;;;;5054323;28;20098;-78
2023/08/02 11:20:35;;;;;;;5.13;1.98;;;18.30;99.90;;;;;;5054599;28;20060;-79
2023/08/02 11:23:00;;;;;;;5.13;1.88;;;18.50;99.90;;;;;;5053917;28;20064;-78
2023/08/02 11:25:26;;;;;;;3.58;1.80;;;18.50;99.90;;;;;;5055059;28;20044;-82
2023/08/02 11:28:05;;;;;;;4.50;1.97;;;18.60;99.90;;;;;;5056254;28;20051;-76
2023/08/02 11:30:33;;;;;;;4.13;2.17;;;18.70;99.90;;;;;;5053086;28;20041;-79
2023/08/02 11:32:59;;;;;;;;;;;18.90;99.90;;;;;;5053262;28;20084;-77
2023/08/02 11:35:24;;;;;;;5.80;2.63;;;19.00;99.90;;;;;;5053485;28;20012;-78
2023/08/02 11:37:51;;;;;;;4.80;2.63;;;19.30;99.90;;;;;;5053757;28;20037;-79
2023/08/02 11:40:17;;;;;;;4.53;2.80;;;19.50;99.90;;;;;;5054338;28;20416;-78
2023/08/02 11:42:48;;;;;;;6.03;2.97;;;19.60;99.90;;;;;;5053767;28;20071;-76
2023/08/02 11:45:26;;;;;;;5.50;3.40;;;19.80;99.90;;;;;;5053689;28;20049;-80
2023/08/02 11:47:52;;;;;;;5.78;3.63;;;20.00;99.90;;;;;;5054247;28;20106;-77
2023/08/02 11:50:27;;;;;;;5.57;3.07;;;20.20;99.90;;;;;;5053664;28;20044;-77
2023/08/02 11:52:52;;;;;;;6.63;3.00;;;20.30;99.90;;;;;;5054185;28;20056;-78
2023/08/02 11:55:21;;;;;;;4.90;3.40;;;20.50;99.90;;;;;;5053076;28;20395;-76
2023/08/02 11:57:48;;;;;;;4.93;3.15;;;20.50;99.90;;;;;;5052290;28;20492;-75
2023/08/02 12:00:14;;;;;;;7.57;3.30;;;20.70;99.90;;;;;;5053053;28;20041;-76
2023/08/02 12:02:40;;;;;;;6.70;3.92;;;20.70;99.90;;;;;;5052605;28;20049;-80
2023/08/02 12:05:08;;;;;;;9.73;4.27;;;20.70;99.90;;;;;;5052602;28;20045;-75
2023/08/02 12:07:35;;;;;;;8.43;4.05;;;20.80;99.90;;;;;;5053442;28;20037;-78
2023/08/02 12:10:03;;;;;;;8.45;3.60;;;21.00;99.90;;;;;;5053243;28;20056;-80
2023/08/02 12:12:31;;;;;;;5.43;3.47;;;21.20;99.90;;;;;;5054535;28;20140;-78
2023/08/02 12:14:57;;;;;;;5.40;3.35;;;21.40;99.90;;;;;;5057549;28;20136;-79
2023/08/02 12:17:24;;;;;;;6.93;4.10;;;21.50;99.90;;;;;;5056411;28;20052;-77
2023/08/02 12:19:51;;;;;;;6.03;3.35;;;21.60;99.90;;;;;;5057796;28;20045;-79
2023/08/02 12:22:18;;;;;;;5.78;3.20;;;21.70;99.90;;;;;;5057156;28;20071;-76
2023/08/02 12:24:44;;;;;;;4.53;2.83;;;21.90;99.90;;;;;;5039566;28;20136;-81
2023/08/02 12:27:15;;;;;;;4.68;2.97;;;22.10;99.90;;;;;;5058214;28;20045;-75
2023/08/02 12:29:45;;;;;;;5.43;3.30;;;22.30;99.90;;;;;;5056094;28;20050;-76
2023/08/02 12:32:26;;;;;;;5.22;2.95;;;22.40;99.90;;;;;;5057757;28;20103;-80
2023/08/02 12:34:52;;;;;;;5.78;2.83;;;22.50;99.90;;;;;;5056591;28;20049;-76
2023/08/02 12:37:18;;;;;;;5.10;2.80;;;22.50;99.90;;;;;;5056146;28;20136;-81
2023/08/02 12:39:44;;;;;;;5.03;2.80;;;22.40;99.90;;;;;;5057617;28;20124;-81
2023/08/02 12:42:10;;;;;;;7.10;2.90;;;22.40;99.90;;;;;;5057737;28;20540;-79